createdAt,value
2023-04-05T00:02:35.631Z,991.3
2023-04-05T00:06:38.501Z,991.2
2023-04-05T00:08:40.156Z,991.3
2023-04-05T00:12:43.356Z,991.2
2023-04-05T00:16:46.752Z,991.2
2023-04-05T00:18:48.663Z,991.2
2023-04-05T00:22:51.872Z,991.1
2023-04-05T00:24:53.077Z,991.1
2023-04-05T00:28:56.202Z,991.1
2023-04-05T00:32:59.251Z,991.1
2023-04-05T00:35:00.750Z,991
2023-04-05T00:39:04.067Z,991
2023-04-05T00:41:05.845Z,990.9
2023-04-05T00:45:09.079Z,990.7
2023-04-05T00:49:12.731Z,990.7
2023-04-05T00:51:14.279Z,990.7
2023-04-05T00:55:17.752Z,990.7
2023-04-05T00:59:20.664Z,990.7
2023-04-05T01:02:06.489Z,990.7
2023-04-05T01:06:09.987Z,990.6
2023-04-05T01:10:13.732Z,990.6
2023-04-05T01:12:14.984Z,990.7
2023-04-05T01:16:18.180Z,990.5
2023-04-05T01:18:19.454Z,990.6
2023-04-05T01:22:22.363Z,990.5
2023-04-05T01:26:26.228Z,990.4
2023-04-05T01:28:28.014Z,990.4
2023-04-05T01:32:31.319Z,990.5
2023-04-05T01:36:35.311Z,990.5
2023-04-05T01:38:36.956Z,990.5
2023-04-05T01:42:39.668Z,990.4
2023-04-05T01:44:41.329Z,990.5
2023-04-05T01:48:44.217Z,990.4
2023-04-05T01:52:47.618Z,990.4
2023-04-05T01:54:49.575Z,990.3
2023-04-05T01:58:52.566Z,990.3
2023-04-05T02:00:54.603Z,990.3
2023-04-05T02:04:57.723Z,990.3
2023-04-05T02:09:00.747Z,990.4
2023-04-05T02:11:02.605Z,990.3
2023-04-05T02:15:06.107Z,990.3
2023-04-05T02:19:09.988Z,990.3
2023-04-05T02:21:11.655Z,990.3
2023-04-05T02:25:15.155Z,990.3
2023-04-05T02:27:26.006Z,990.2
2023-04-05T02:31:20.110Z,990.2
2023-04-05T02:35:22.831Z,990.2
2023-04-05T02:37:24.063Z,990.1
2023-04-05T02:41:27.697Z,990.2
2023-04-05T02:43:29.189Z,990.1
2023-04-05T02:47:32.334Z,990.1
2023-04-05T02:51:36.441Z,990.2
2023-04-05T02:53:37.886Z,990.2
2023-04-05T02:57:40.781Z,990.1
2023-04-05T03:01:43.859Z,990.2
2023-04-05T03:03:45.558Z,990.2
2023-04-05T03:07:48.813Z,990.2
2023-04-05T03:09:50.240Z,990.2
2023-04-05T03:13:53.016Z,990.2
2023-04-05T03:17:56.262Z,990.1
2023-04-05T03:19:57.993Z,990.1
2023-04-05T03:24:01.285Z,990.2
2023-04-05T03:26:02.450Z,990.2
2023-04-05T03:30:06.501Z,990.2
2023-04-05T03:34:10.126Z,990.3
2023-04-05T03:36:11.543Z,990.3
2023-04-05T03:40:13.972Z,990.3
2023-04-05T03:44:17.198Z,990.3
2023-04-05T03:46:19.259Z,990.2
2023-04-05T03:50:22.659Z,990.3
2023-04-05T03:52:23.955Z,990.2
2023-04-05T03:56:27.853Z,990.2
2023-04-05T04:00:31.326Z,990.2
2023-04-05T04:02:33.420Z,990.2
2023-04-05T04:06:36.045Z,990.2
2023-04-05T04:08:37.430Z,990.2
2023-04-05T04:12:40.669Z,990.2
2023-04-05T04:16:44.060Z,990.3
2023-04-05T04:18:45.885Z,990.1
2023-04-05T04:22:49.842Z,990.2
2023-04-05T04:26:53.668Z,990.2
2023-04-05T04:28:54.932Z,990.2
2023-04-05T04:32:58.276Z,990.2
2023-04-05T04:34:59.647Z,990.1
2023-04-05T04:39:02.548Z,990.2
2023-04-05T04:43:06.196Z,990.2
2023-04-05T04:45:07.953Z,990.1
2023-04-05T04:49:11.358Z,990.1
2023-04-05T04:51:13.286Z,990.1
2023-04-05T04:55:16.049Z,990.1
2023-04-05T04:59:18.721Z,990.2
2023-04-05T05:01:20.677Z,990.1
2023-04-05T05:05:24.395Z,990.1
2023-04-05T05:09:27.866Z,990.2
2023-04-05T05:11:29.881Z,990.2
2023-04-05T05:15:33.280Z,990.2
2023-04-05T05:17:35.056Z,990.2
2023-04-05T05:21:38.322Z,990.2
2023-04-05T05:25:41.137Z,990.2
2023-04-05T05:27:42.591Z,990.2
2023-04-05T05:31:46.005Z,990.3
2023-04-05T05:33:47.911Z,990.1
2023-04-05T05:37:51.136Z,990.1
2023-04-05T05:41:53.541Z,990.1
2023-04-05T05:43:55.291Z,990.1
2023-04-05T05:47:58.365Z,990.1
2023-04-05T05:52:01.172Z,990.1
2023-04-05T05:54:02.669Z,990.1
2023-04-05T05:58:06.115Z,990
2023-04-05T06:00:07.269Z,990
2023-04-05T06:04:10.280Z,990
2023-04-05T06:10:14.726Z,990.1
2023-04-05T06:14:17.769Z,990
2023-04-05T06:16:19.376Z,990
2023-04-05T06:20:21.843Z,990.1
2023-04-05T06:24:25.691Z,990.1
2023-04-05T06:26:26.991Z,990.1
2023-04-05T06:30:30.394Z,990.1
2023-04-05T06:32:31.788Z,990
2023-04-05T06:36:35.338Z,989.9
2023-04-05T06:40:38.079Z,990
2023-04-05T06:42:39.337Z,990
2023-04-05T06:46:42.673Z,990
2023-04-05T06:48:44.058Z,989.9
2023-04-05T06:52:46.757Z,989.9
2023-04-05T06:56:49.947Z,990
2023-04-05T06:58:51.338Z,990
2023-04-05T07:02:53.568Z,990
2023-04-05T07:06:56.928Z,989.9
2023-04-05T07:08:58.833Z,990
2023-04-05T07:13:02.139Z,989.9
2023-04-05T07:15:03.427Z,989.8
2023-04-05T07:19:06.123Z,989.9
2023-04-05T07:23:08.542Z,989.9
2023-04-05T07:25:10.165Z,989.9
2023-04-05T07:29:12.869Z,989.9
2023-04-05T07:31:14.632Z,989.8
2023-04-05T07:35:16.956Z,989.8
2023-04-05T07:39:20.390Z,989.8
2023-04-05T07:41:21.861Z,989.8
2023-04-05T07:45:24.936Z,989.8
2023-04-05T07:50:11.812Z,989.8
2023-04-05T07:52:13.386Z,989.8
2023-04-05T07:56:16.320Z,989.8
2023-04-05T08:00:19.572Z,989.8
2023-04-05T08:02:21.240Z,989.9
2023-04-05T08:06:23.858Z,989.9
2023-04-05T08:08:25.319Z,989.9
2023-04-05T08:12:28.373Z,989.8
2023-04-05T08:16:31.368Z,989.9
2023-04-05T08:18:32.979Z,989.9
2023-04-05T08:22:35.254Z,989.8
2023-04-05T08:26:38.081Z,989.8
2023-04-05T08:28:39.694Z,989.7
2023-04-05T08:32:41.992Z,989.7
2023-04-05T08:34:43.372Z,989.6
2023-04-05T08:36:45.213Z,989.7
2023-04-05T08:38:46.230Z,989.7
2023-04-05T08:42:48.633Z,989.7
2023-04-05T08:44:49.592Z,989.8
2023-04-05T08:48:51.776Z,989.7
2023-04-05T08:50:52.900Z,989.7
2023-04-05T08:54:55.642Z,989.7
2023-04-05T08:58:58.502Z,989.6
2023-04-05T09:00:59.510Z,989.6
2023-04-05T09:05:02.211Z,989.6
2023-04-05T09:07:04.029Z,989.7
2023-04-05T09:11:06.193Z,989.6
2023-04-05T09:15:09.568Z,989.6
2023-04-05T09:17:10.853Z,989.7
2023-04-05T09:21:13.826Z,989.7
2023-04-05T09:25:16.401Z,989.6
2023-04-05T09:27:17.498Z,989.7
2023-04-05T09:31:21.147Z,989.7
2023-04-05T09:33:22.902Z,989.5
2023-04-05T09:37:25.997Z,989.6
2023-04-05T09:41:29.271Z,989.5
2023-04-05T09:43:30.545Z,989.5
2023-04-05T09:47:33.365Z,989.4
2023-04-05T09:49:34.540Z,989.5
2023-04-05T09:53:37.440Z,989.4
2023-04-05T09:57:39.941Z,989.5
2023-04-05T09:59:41.704Z,989.6
2023-04-05T10:03:44.717Z,989.6
2023-04-05T10:07:47.854Z,989.5
2023-04-05T10:09:49.774Z,989.5
2023-04-05T10:13:52.834Z,989.6
2023-04-05T10:15:54.328Z,989.6
2023-04-05T10:19:56.492Z,989.4
2023-04-05T10:23:59.718Z,989.5
2023-04-05T10:26:01.155Z,989.4
2023-04-05T10:30:04.537Z,989.3
2023-04-05T10:32:06.233Z,989.3
2023-04-05T10:36:09.174Z,989.3
2023-04-05T10:40:11.434Z,989.3
2023-04-05T10:42:12.342Z,989.2
2023-04-05T10:46:15.157Z,989.1
2023-04-05T10:50:17.641Z,989.2
2023-04-05T10:52:19.161Z,989.2
2023-04-05T10:56:21.788Z,989.2
2023-04-05T10:58:22.741Z,989.2
2023-04-05T11:00:24.221Z,989.2
2023-04-05T11:02:25.475Z,989.2
2023-04-05T11:06:27.840Z,989.2
2023-04-05T11:08:29.393Z,989.2
2023-04-05T11:10:30.689Z,989.2
2023-04-05T11:12:32.392Z,989.1
2023-04-05T11:14:33.601Z,989.1
2023-04-05T11:18:37.343Z,989.1
2023-04-05T11:20:39.043Z,989.2
2023-04-05T11:22:40.702Z,989.1
2023-04-05T11:24:42.429Z,989.2
2023-04-05T11:28:45.315Z,989
2023-04-05T11:30:46.877Z,989.1
2023-04-05T11:34:50.151Z,989
2023-04-05T11:38:53.260Z,989
2023-04-05T11:40:54.272Z,988.9
2023-04-05T11:44:56.800Z,988.9
2023-04-05T11:48:59.908Z,988.9
2023-04-05T11:51:01.247Z,988.9
2023-04-05T11:55:04.427Z,988.8
2023-04-05T11:57:05.588Z,988.7
2023-04-05T12:01:08.648Z,988.7
2023-04-05T12:05:11.631Z,988.7
2023-04-05T12:07:12.916Z,988.7
2023-04-05T12:11:15.596Z,988.7
2023-04-05T12:13:17.006Z,988.7
2023-04-05T12:17:19.418Z,988.6
2023-04-05T12:21:21.969Z,988.6
2023-04-05T12:23:23.075Z,988.6
2023-04-05T12:27:26.232Z,988.5
2023-04-05T12:31:28.874Z,988.5
2023-04-05T12:33:30.525Z,988.6
2023-04-05T12:37:34.100Z,988.6
2023-04-05T12:39:35.079Z,988.6
2023-04-05T12:43:37.918Z,988.5
2023-04-05T12:47:41.967Z,988.5
2023-04-05T12:49:43.050Z,988.4
2023-04-05T12:53:46.795Z,988.5
2023-04-05T12:55:47.881Z,988.5
2023-04-05T12:59:51.163Z,988.4
2023-04-05T13:03:58.986Z,988.3
2023-04-05T13:05:55.810Z,988.3
2023-04-05T13:09:58.138Z,988.2
2023-04-05T13:14:01.190Z,988.2
2023-04-05T13:16:02.701Z,988.2
2023-04-05T13:20:05.464Z,988.2
2023-04-05T13:22:07.127Z,988.2
2023-04-05T13:26:09.914Z,988.2
2023-04-05T13:30:13.233Z,988.1
2023-04-05T13:32:14.423Z,988.1
2023-04-05T13:36:17.400Z,988.1
2023-04-05T13:38:18.669Z,987.9
2023-04-05T13:42:21.614Z,988
2023-04-05T13:46:24.073Z,988
2023-04-05T13:48:25.241Z,987.9
2023-04-05T13:52:28.284Z,987.9
2023-04-05T13:56:31.329Z,987.8
2023-04-05T13:58:32.577Z,987.8
2023-04-05T14:02:35.811Z,987.8
2023-04-05T14:04:36.741Z,987.6
2023-04-05T14:08:39.716Z,987.7
2023-04-05T14:12:42.495Z,987.7
2023-04-05T14:14:44.123Z,987.7
2023-04-05T14:18:47.082Z,987.6
2023-04-05T14:20:48.166Z,987.7
2023-04-05T14:24:50.832Z,987.6
2023-04-05T14:28:53.619Z,987.6
2023-04-05T14:30:55.351Z,987.6
2023-04-05T14:33:40.213Z,987.6
2023-04-05T14:35:41.615Z,987.6
2023-04-05T14:39:44.419Z,987.5
2023-04-05T14:41:46.239Z,987.6
2023-04-05T14:45:48.758Z,987.5
2023-04-05T14:49:51.291Z,987.5
2023-04-05T14:51:53.013Z,987.5
2023-04-05T14:55:56.636Z,987.6
2023-04-05T14:57:58.489Z,987.5
2023-04-05T15:02:01.716Z,987.5
2023-04-05T15:06:04.444Z,987.4
2023-04-05T15:08:06.171Z,987.4
2023-04-05T15:12:08.433Z,987.5
2023-04-05T15:14:13.339Z,987.5
2023-04-05T15:18:12.858Z,987.3
2023-04-05T15:22:14.941Z,987.4
2023-04-05T15:24:15.983Z,987.4
2023-04-05T15:28:18.903Z,987.4
2023-04-05T15:32:22.471Z,987.3
2023-04-05T15:34:24.127Z,987.4
2023-04-05T15:38:26.416Z,987.3
2023-04-05T15:40:28.110Z,987.3
2023-04-05T15:44:30.988Z,987.2
2023-04-05T15:48:33.979Z,987.3
2023-04-05T15:50:35.219Z,987.3
2023-04-05T15:54:38.151Z,987.3
2023-04-05T15:56:40.057Z,987.3
2023-04-05T16:00:43.342Z,987.3
2023-04-05T16:04:46.318Z,987.5
2023-04-05T16:06:47.335Z,987.4
2023-04-05T16:10:50.531Z,987.4
2023-04-05T16:14:53.417Z,987.3
2023-04-05T16:16:55.316Z,987.3
2023-04-05T16:20:58.286Z,987.3
2023-04-05T16:22:59.705Z,987.3
2023-04-05T16:27:03.202Z,987.4
2023-04-05T16:31:06.490Z,987.3
2023-04-05T16:33:08.276Z,987.3
2023-04-05T16:37:11.727Z,987.4
2023-04-05T16:39:13.630Z,987.4
2023-04-05T16:43:16.285Z,987.3
2023-04-05T16:47:19.016Z,987.3
2023-04-05T16:49:20.178Z,987.4
2023-04-05T16:53:23.261Z,987.4
2023-04-05T16:57:26.016Z,987.3
2023-04-05T16:59:27.728Z,987.3
2023-04-05T17:03:30.365Z,987.3
2023-04-05T17:05:31.364Z,987.2
2023-04-05T17:09:34.795Z,987.3
2023-04-05T17:13:37.733Z,987.3
2023-04-05T17:15:38.983Z,987.3
2023-04-05T17:19:42.256Z,987.4
2023-04-05T17:21:43.817Z,987.3
2023-04-05T17:25:47.512Z,987.4
2023-04-05T17:29:50.305Z,987.3
2023-04-05T17:31:51.648Z,987.4
2023-04-05T17:35:54.422Z,987.4
2023-04-05T17:39:57.347Z,987.4
2023-04-05T17:41:59.053Z,987.4
2023-04-05T17:46:01.368Z,987.3
2023-04-05T17:48:02.512Z,987.4
2023-04-05T17:50:03.687Z,987.4
2023-04-05T17:52:04.914Z,987.3
2023-04-05T17:56:07.416Z,987.4
2023-04-05T17:58:08.886Z,987.4
2023-04-05T18:00:10.043Z,987.4
2023-04-05T18:02:11.646Z,987.4
2023-04-05T18:04:13.327Z,987.5
2023-04-05T18:08:15.561Z,987.5
2023-04-05T18:12:18.612Z,987.5
2023-04-05T18:14:20.367Z,987.5
2023-04-05T18:18:22.862Z,987.6
2023-04-05T18:20:24.495Z,987.6
2023-04-05T18:24:26.635Z,987.6
2023-04-05T18:28:29.441Z,987.7
2023-04-05T18:30:30.574Z,987.7
2023-04-05T18:34:33.998Z,987.8
2023-04-05T18:38:37.646Z,987.8
2023-04-05T18:40:39.644Z,987.8
2023-04-05T18:44:43.224Z,987.8
2023-04-05T18:46:44.474Z,987.8
2023-04-05T18:48:45.502Z,987.9
2023-04-05T18:50:47.012Z,987.8
2023-04-05T18:54:50.156Z,987.7
2023-04-05T18:56:51.585Z,987.8
2023-04-05T19:00:54.694Z,987.8
2023-04-05T19:02:56.578Z,987.9
2023-04-05T19:06:59.938Z,987.9
2023-04-05T19:11:03.195Z,988
2023-04-05T19:13:04.589Z,988
2023-04-05T19:17:09.266Z,988
2023-04-05T19:21:10.616Z,988
2023-04-05T19:23:12.131Z,988
2023-04-05T19:27:15.479Z,988
2023-04-05T19:29:16.942Z,988
2023-04-05T19:33:21.096Z,988
2023-04-05T19:37:22.773Z,988
2023-04-05T19:39:25.302Z,987.9
2023-04-05T19:43:27.261Z,988.1
2023-04-05T19:45:28.475Z,988
2023-04-05T19:49:31.762Z,988.1
2023-04-05T19:53:34.478Z,988
2023-04-05T19:55:35.834Z,988
2023-04-05T19:59:39.193Z,988
2023-04-05T20:03:41.332Z,988
2023-04-05T20:05:42.634Z,988
2023-04-05T20:09:45.502Z,987.9
2023-04-05T20:11:47.319Z,987.9
2023-04-05T20:15:50.380Z,987.9
2023-04-05T20:19:52.886Z,987.9
2023-04-05T20:21:53.998Z,988
2023-04-05T20:25:57.178Z,987.9
2023-04-05T20:27:58.524Z,988
2023-04-05T20:32:01.141Z,987.9
2023-04-05T20:36:04.369Z,988
2023-04-05T20:38:05.670Z,987.9
2023-04-05T20:42:09.093Z,987.9
2023-04-05T20:46:12.137Z,987.9
2023-04-05T20:48:13.281Z,987.9
2023-04-05T20:50:14.784Z,988
2023-04-05T20:54:17.783Z,987.9
2023-04-05T20:58:21.513Z,988
2023-04-05T21:02:24.462Z,987.9
2023-04-05T21:04:27.041Z,988.1
2023-04-05T21:06:27.580Z,988
2023-04-05T21:08:28.678Z,988
2023-04-05T21:10:30.372Z,988
2023-04-05T21:14:33.349Z,987.9
2023-04-05T21:19:20.439Z,987.9
2023-04-05T21:21:21.711Z,988
2023-04-05T21:25:25.176Z,988
2023-04-05T21:27:26.406Z,988.1
2023-04-05T21:29:27.570Z,988
2023-04-05T21:31:28.859Z,988
2023-04-05T21:35:31.268Z,988
2023-04-05T21:39:35.136Z,988
2023-04-05T21:41:36.414Z,988
2023-04-05T21:45:39.871Z,988
2023-04-05T21:47:41.003Z,988.1
2023-04-05T21:51:44.148Z,988.1
2023-04-05T21:55:46.992Z,988
2023-04-05T21:57:48.421Z,988.1
2023-04-05T22:01:51.990Z,988.1
2023-04-05T22:03:53.456Z,988
2023-04-05T22:07:56.958Z,988.1
2023-04-05T22:12:00.440Z,988
2023-04-05T22:14:01.941Z,987.9
2023-04-05T22:18:05.666Z,988.1
2023-04-05T22:22:08.418Z,988
2023-04-05T22:24:09.840Z,988
2023-04-05T22:28:13.256Z,988
2023-04-05T22:30:16.074Z,987.9
2023-04-05T22:34:18.182Z,988.1
2023-04-05T22:38:21.548Z,988
2023-04-05T22:40:22.697Z,988
2023-04-05T22:44:25.829Z,988
2023-04-05T22:46:26.984Z,988
2023-04-05T22:50:30.095Z,987.9
2023-04-05T22:54:33.051Z,988
2023-04-05T22:56:34.666Z,988
2023-04-05T23:00:37.718Z,988
2023-04-05T23:04:41.608Z,988
2023-04-05T23:06:43.473Z,987.9
2023-04-05T23:10:46.098Z,988
2023-04-05T23:12:47.301Z,987.9
2023-04-05T23:16:50.978Z,988
2023-04-05T23:20:54.439Z,988
2023-04-05T23:22:55.592Z,988
2023-04-05T23:26:58.923Z,988
2023-04-05T23:29:00.517Z,987.9
2023-04-05T23:33:03.592Z,987.9
2023-04-05T23:37:06.745Z,987.9
2023-04-05T23:39:08.638Z,987.9
2023-04-05T23:43:11.561Z,987.7
2023-04-05T23:47:15.147Z,987.8
2023-04-05T23:49:17.112Z,987.8
2023-04-05T23:53:19.492Z,987.9
2023-04-05T23:55:20.640Z,987.9
2023-04-05T23:59:24.223Z,987.8
